Time,TemperatureF,DewpointF,PressureIn,WindDirection,WindDirectionDegrees,WindSpeedMPH,WindSpeedGustMPH,Humidity,HourlyPrecipIn,Conditions,Clouds,dailyrainin,SoftwareType,DateUTC
2013-03-23 00:05:00,39.5,31.0,29.85,WSW,243,1.0,3.0,71,0.00,,,0.00,weatherlink.com 1.10,2013-03-23 04:05:00,
2013-03-23 00:19:00,39.5,30.0,29.85,SW,222,1.0,3.0,69,0.00,,,0.00,weatherlink.com 1.10,2013-03-23 04:19:00,
2013-03-23 00:36:00,38.4,30.0,29.85,WSW,248,0.0,2.0,73,0.00,,,0.00,weatherlink.com 1.10,2013-03-23 04:36:00,
2013-03-23 00:51:00,37.9,30.0,29.85,SW,231,0.0,2.0,74,0.00,,,0.00,weatherlink.com 1.10,2013-03-23 04:51:00,
2013-03-23 01:06:00,39.3,30.0,29.85,WSW,243,2.0,4.0,70,0.00,,,0.00,weatherlink.com 1.10,2013-03-23 05:06:00,
2013-03-23 01:21:00,38.0,30.0,29.85,WSW,242,0.0,2.0,74,0.00,,,0.00,weatherlink.com 1.10,2013-03-23 05:21:00,
2013-03-23 01:36:00,37.4,30.0,29.85,West,274,0.0,2.0,76,0.00,,,0.00,weatherlink.com 1.10,2013-03-23 05:36:00,
2013-03-23 01:51:00,37.1,31.0,29.84,West,274,0.0,0.0,77,0.00,,,0.00,weatherlink.com 1.10,2013-03-23 05:51:00,
2013-03-23 02:06:00,37.6,32.0,29.84,SSW,200,1.0,2.0,80,0.00,,,0.00,weatherlink.com 1.10,2013-03-23 06:06:00,
2013-03-23 02:22:00,38.1,32.0,29.84,SSW,201,0.0,1.0,80,0.00,,,0.00,weatherlink.com 1.10,2013-03-23 06:22:00,
2013-03-23 02:37:00,38.3,32.0,29.84,SSW,203,0.0,1.0,79,0.00,,,0.00,weatherlink.com 1.10,2013-03-23 06:37:00,
2013-03-23 02:52:00,38.5,33.0,29.84,SSW,207,0.0,0.0,81,0.00,,,0.00,weatherlink.com 1.10,2013-03-23 06:52:00,
2013-03-23 03:07:00,38.7,33.0,29.84,SSW,207,0.0,0.0,80,0.00,,,0.00,weatherlink.com 1.10,2013-03-23 07:07:00,
2013-03-23 03:22:00,38.8,33.0,29.84,SW,232,1.0,1.0,80,0.00,,,0.00,weatherlink.com 1.10,2013-03-23 07:22:00,
2013-03-23 03:37:00,39.0,33.0,29.83,SW,218,1.0,2.0,79,0.00,,,0.00,weatherlink.com 1.10,2013-03-23 07:37:00,
2013-03-23 03:53:00,39.5,33.0,29.82,SSW,205,1.0,1.0,77,0.00,,,0.00,weatherlink.com 1.10,2013-03-23 07:53:00,
2013-03-23 04:08:00,39.7,32.0,29.82,SW,215,0.0,1.0,75,0.00,,,0.00,weatherlink.com 1.10,2013-03-23 08:08:00,
2013-03-23 04:23:00,39.2,32.0,29.82,SSW,210,1.0,2.0,76,0.00,,,0.00,weatherlink.com 1.10,2013-03-23 08:23:00,
2013-03-23 04:38:00,38.9,33.0,29.82,SW,225,0.0,2.0,78,0.00,,,0.00,weatherlink.com 1.10,2013-03-23 08:38:00,
2013-03-23 04:54:00,38.8,33.0,29.82,SW,225,0.0,1.0,79,0.00,,,0.00,weatherlink.com 1.10,2013-03-23 08:54:00,
2013-03-23 05:09:00,38.2,33.0,29.82,SW,225,0.0,0.0,80,0.00,,,0.00,weatherlink.com 1.10,2013-03-23 09:09:00,
2013-03-23 05:24:00,37.3,32.0,29.82,South,190,1.0,1.0,82,0.00,,,0.00,weatherlink.com 1.10,2013-03-23 09:24:00,
2013-03-23 05:39:00,36.4,32.0,29.81,SSW,197,1.0,1.0,84,0.00,,,0.00,weatherlink.com 1.10,2013-03-23 09:39:00,
2013-03-23 05:56:00,35.4,31.0,29.82,SSE,165,0.0,1.0,85,0.00,,,0.00,weatherlink.com 1.10,2013-03-23 09:56:00,
2013-03-23 06:11:00,34.8,31.0,29.82,SSE,166,0.0,1.0,86,0.00,,,0.00,weatherlink.com 1.10,2013-03-23 10:11:00,
2013-03-23 06:27:00,33.1,29.0,29.83,SSE,167,0.0,0.0,86,0.00,,,0.00,weatherlink.com 1.10,2013-03-23 10:27:00,
2013-03-23 06:41:00,-999.0,-99.9,29.84,North,-999,-999.0,-999.0,-999,0.00,,,0.00,weatherlink.com 1.10,2013-03-23 10:41:00,
2013-03-23 06:57:00,-999.0,-99.9,29.84,North,-999,-999.0,-999.0,-999,0.00,,,0.00,weatherlink.com 1.10,2013-03-23 10:57:00,
2013-03-23 07:11:00,-999.0,-99.9,29.84,North,-999,-999.0,-999.0,-999,0.00,,,0.00,weatherlink.com 1.10,2013-03-23 11:11:00,
2013-03-23 07:26:00,-999.0,-99.9,29.84,North,-999,-999.0,-999.0,-999,0.00,,,0.00,weatherlink.com 1.10,2013-03-23 11:26:00,
2013-03-23 07:41:00,33.7,31.0,29.84,SSE,155,0.0,0.0,90,0.00,,,0.00,weatherlink.com 1.10,2013-03-23 11:41:00,
2013-03-23 07:57:00,35.7,33.0,29.85,SSE,158,0.0,0.0,89,0.00,,,0.00,weatherlink.com 1.10,2013-03-23 11:57:00,
2013-03-23 08:13:00,38.4,34.0,29.84,SSE,158,0.0,1.0,85,0.00,,,0.00,weatherlink.com 1.10,2013-03-23 12:13:00,
2013-03-23 08:27:00,41.2,35.0,29.84,SSE,158,0.0,1.0,79,0.00,,,0.00,weatherlink.com 1.10,2013-03-23 12:27:00,
2013-03-23 08:43:00,43.3,35.0,29.84,ENE,64,0.0,1.0,72,0.00,,,0.00,weatherlink.com 1.10,2013-03-23 12:43:00,
2013-03-23 08:58:00,45.0,35.0,29.84,NW,309,0.0,2.0,69,0.00,,,0.00,weatherlink.com 1.10,2013-03-23 12:58:00,
2013-03-23 09:13:00,47.2,35.0,29.85,West,262,1.0,3.0,64,0.00,,,0.00,weatherlink.com 1.10,2013-03-23 13:13:00,
2013-03-23 09:28:00,48.4,34.0,29.84,WSW,250,1.0,3.0,58,0.00,,,0.00,weatherlink.com 1.10,2013-03-23 13:28:00,
2013-03-23 09:43:00,49.3,33.0,29.85,WNW,288,1.0,4.0,53,0.00,,,0.00,weatherlink.com 1.10,2013-03-23 13:43:00,
2013-03-23 09:59:00,49.9,32.0,29.84,NW,312,3.0,5.0,50,0.00,,,0.00,weatherlink.com 1.10,2013-03-23 13:59:00,
2013-03-23 10:14:00,50.7,31.0,29.84,West,263,1.0,6.0,48,0.00,,,0.00,weatherlink.com 1.10,2013-03-23 14:14:00,
2013-03-23 10:29:00,51.7,30.0,29.84,NW,315,1.0,4.0,44,0.00,,,0.00,weatherlink.com 1.10,2013-03-23 14:29:00,
2013-03-23 10:46:00,51.9,30.0,29.84,NW,314,3.0,6.0,43,0.00,,,0.00,weatherlink.com 1.10,2013-03-23 14:46:00,
2013-03-23 11:02:00,52.1,30.0,29.83,NNE,20,4.0,7.0,43,0.00,,,0.00,weatherlink.com 1.10,2013-03-23 15:02:00,
2013-03-23 11:16:00,52.5,31.0,29.83,NNW,342,5.0,6.0,44,0.00,,,0.00,weatherlink.com 1.10,2013-03-23 15:16:00,
2013-03-23 11:31:00,53.0,30.0,29.84,North,353,5.0,5.0,42,0.00,,,0.00,weatherlink.com 1.10,2013-03-23 15:31:00,
2013-03-23 11:46:00,53.3,30.0,29.84,WNW,291,3.0,8.0,41,0.00,,,0.00,weatherlink.com 1.10,2013-03-23 15:46:00,
2013-03-23 12:05:00,54.2,31.0,29.84,NE,34,2.0,5.0,41,0.00,,,0.00,weatherlink.com 1.10,2013-03-23 16:05:00,
2013-03-23 12:16:00,54.0,30.0,29.84,NW,325,4.0,5.0,40,0.00,,,0.00,weatherlink.com 1.10,2013-03-23 16:16:00,
2013-03-23 12:31:00,53.8,30.0,29.84,North,355,0.0,4.0,41,0.00,,,0.00,weatherlink.com 1.10,2013-03-23 16:31:00,
2013-03-23 12:46:00,54.2,31.0,29.84,WNW,291,3.0,4.0,42,0.00,,,0.00,weatherlink.com 1.10,2013-03-23 16:46:00,
2013-03-23 13:02:00,54.7,31.0,29.84,WSW,250,3.0,6.0,40,0.00,,,0.00,weatherlink.com 1.10,2013-03-23 17:02:00,
2013-03-23 13:17:00,54.4,31.0,29.83,WSW,255,3.0,8.0,41,0.00,,,0.00,weatherlink.com 1.10,2013-03-23 17:17:00,
2013-03-23 13:32:00,54.5,31.0,29.82,WSW,245,1.0,7.0,41,0.00,,,0.00,weatherlink.com 1.10,2013-03-23 17:32:00,
2013-03-23 13:47:00,54.3,29.0,29.82,West,280,2.0,6.0,38,0.00,,,0.00,weatherlink.com 1.10,2013-03-23 17:47:00,
2013-03-23 14:03:00,54.4,30.0,29.82,WSW,248,0.0,6.0,40,0.00,,,0.00,weatherlink.com 1.10,2013-03-23 18:03:00,
2013-03-23 14:18:00,54.2,30.0,29.81,West,281,4.0,7.0,39,0.00,,,0.00,weatherlink.com 1.10,2013-03-23 18:18:00,
2013-03-23 14:33:00,54.1,30.0,29.79,SW,233,3.0,6.0,40,0.00,,,0.00,weatherlink.com 1.10,2013-03-23 18:33:00,
2013-03-23 14:48:00,54.2,30.0,29.79,SW,226,1.0,7.0,40,0.00,,,0.00,weatherlink.com 1.10,2013-03-23 18:48:00,
2013-03-23 15:04:00,54.4,30.0,29.79,WNW,290,1.0,9.0,40,0.00,,,0.00,weatherlink.com 1.10,2013-03-23 19:04:00,
2013-03-23 15:19:00,55.1,31.0,29.79,WNW,300,5.0,7.0,40,0.00,,,0.00,weatherlink.com 1.10,2013-03-23 19:19:00,
2013-03-23 15:34:00,54.9,30.0,29.78,WNW,301,6.0,9.0,39,0.00,,,0.00,weatherlink.com 1.10,2013-03-23 19:34:00,
2013-03-23 15:49:00,55.0,31.0,29.78,WSW,245,3.0,8.0,40,0.00,,,0.00,weatherlink.com 1.10,2013-03-23 19:49:00,
2013-03-23 16:05:00,55.4,31.0,29.77,ESE,113,2.0,4.0,39,0.00,,,0.00,weatherlink.com 1.10,2013-03-23 20:05:00,
2013-03-23 16:21:00,55.9,32.0,29.76,WSW,257,2.0,5.0,40,0.00,,,0.00,weatherlink.com 1.10,2013-03-23 20:21:00,
2013-03-23 16:36:00,56.5,31.0,29.75,WSW,239,1.0,2.0,38,0.00,,,0.00,weatherlink.com 1.10,2013-03-23 20:36:00,
2013-03-23 16:51:00,57.3,30.0,29.75,North,356,1.0,3.0,36,0.00,,,0.00,weatherlink.com 1.10,2013-03-23 20:51:00,
2013-03-23 17:06:00,56.9,30.0,29.74,ESE,110,1.0,4.0,36,0.00,,,0.00,weatherlink.com 1.10,2013-03-23 21:06:00,
2013-03-23 17:21:00,58.8,32.0,29.74,North,358,3.0,3.0,36,0.00,,,0.00,weatherlink.com 1.10,2013-03-23 21:21:00,
2013-03-23 17:36:00,57.5,31.0,29.73,ENE,74,2.0,5.0,37,0.00,,,0.00,weatherlink.com 1.10,2013-03-23 21:36:00,
2013-03-23 18:06:00,56.7,32.0,29.73,East,101,2.0,5.0,39,0.00,,,0.00,weatherlink.com 1.10,2013-03-23 22:06:00,
2013-03-23 18:22:00,56.2,32.0,29.72,ENE,64,3.0,7.0,40,0.00,,,0.00,weatherlink.com 1.10,2013-03-23 22:22:00,
2013-03-23 18:37:00,55.7,32.0,29.73,ENE,75,5.0,5.0,41,0.00,,,0.00,weatherlink.com 1.10,2013-03-23 22:37:00,
2013-03-23 18:52:00,55.1,32.0,29.73,East,89,3.0,5.0,42,0.00,,,0.00,weatherlink.com 1.10,2013-03-23 22:52:00,
2013-03-23 19:07:00,54.6,32.0,29.73,ESE,103,1.0,3.0,43,0.00,,,0.00,weatherlink.com 1.10,2013-03-23 23:07:00,
2013-03-23 19:22:00,53.4,34.0,29.73,East,101,0.0,1.0,48,0.00,,,0.00,weatherlink.com 1.10,2013-03-23 23:22:00,
2013-03-23 19:38:00,51.6,34.0,29.74,East,101,0.0,1.0,51,0.00,,,0.00,weatherlink.com 1.10,2013-03-23 23:38:00,
2013-03-23 19:53:00,50.2,34.0,29.74,SSW,200,2.0,3.0,55,0.00,,,0.00,weatherlink.com 1.10,2013-03-23 23:53:00,
2013-03-23 20:08:00,49.4,36.0,29.75,SSW,212,2.0,3.0,61,0.00,,,0.00,weatherlink.com 1.10,2013-03-24 00:08:00,
2013-03-23 20:23:00,48.7,37.0,29.76,SW,228,0.0,2.0,65,0.00,,,0.00,weatherlink.com 1.10,2013-03-24 00:23:00,
2013-03-23 20:39:00,47.8,38.0,29.77,SW,229,0.0,1.0,68,0.00,,,0.00,weatherlink.com 1.10,2013-03-24 00:39:00,
2013-03-23 20:54:00,46.7,38.0,29.78,West,259,1.0,3.0,71,0.00,,,0.00,weatherlink.com 1.10,2013-03-24 00:54:00,
2013-03-23 21:09:00,46.7,38.0,29.79,West,281,0.0,2.0,72,0.00,,,0.00,weatherlink.com 1.10,2013-03-24 01:09:00,
2013-03-23 21:24:00,45.4,38.0,29.79,West,279,0.0,0.0,74,0.00,,,0.00,weatherlink.com 1.10,2013-03-24 01:24:00,
2013-03-23 21:41:00,44.2,37.0,29.79,SW,223,0.0,2.0,77,0.00,,,0.00,weatherlink.com 1.10,2013-03-24 01:41:00,
2013-03-23 21:56:00,44.4,38.0,29.80,SW,225,0.0,1.0,78,0.00,,,0.00,weatherlink.com 1.10,2013-03-24 01:56:00,
2013-03-23 22:11:00,43.4,37.0,29.80,SSW,200,1.0,1.0,79,0.00,,,0.00,weatherlink.com 1.10,2013-03-24 02:11:00,
2013-03-23 22:26:00,42.5,37.0,29.79,South,176,0.0,1.0,81,0.00,,,0.00,weatherlink.com 1.10,2013-03-24 02:26:00,
2013-03-23 22:41:00,42.0,37.0,29.79,SW,227,0.0,1.0,83,0.00,,,0.00,weatherlink.com 1.10,2013-03-24 02:41:00,
2013-03-23 22:56:00,41.6,37.0,29.79,SW,218,1.0,1.0,84,0.00,,,0.00,weatherlink.com 1.10,2013-03-24 02:56:00,
2013-03-23 23:11:00,40.9,37.0,29.78,South,191,0.0,1.0,85,0.00,,,0.00,weatherlink.com 1.10,2013-03-24 03:11:00,
2013-03-23 23:57:00,40.8,37.0,29.76,ENE,77,2.0,2.0,86,0.00,,,0.00,weatherlink.com 1.10,2013-03-24 03:57:00,